sensor_id;sensor_type;location;lat;lon;timestamp;pressure;altitude;pressure_sealevel;temperature;humidity
44839;BME280;30576;42.098;24.876;2023-04-28T00:00:49;99935.88;;;11.66;47.08
44839;BME280;30576;42.098;24.876;2023-04-28T00:03:59;99940.63;;;11.44;46.91
44839;BME280;30576;42.098;24.876;2023-04-28T00:06:25;99940.53;;;11.52;46.65
44839;BME280;30576;42.098;24.876;2023-04-28T00:08:53;99936.16;;;11.49;46.31
44839;BME280;30576;42.098;24.876;2023-04-28T00:11:18;99941.47;;;11.46;45.46
44839;BME280;30576;42.098;24.876;2023-04-28T00:13:46;99944.16;;;11.43;46.08
44839;BME280;30576;42.098;24.876;2023-04-28T00:16:35;99945.78;;;11.53;45.85
44839;BME280;30576;42.098;24.876;2023-04-28T00:19:34;99940.16;;;11.75;46.07
44839;BME280;30576;42.098;24.876;2023-04-28T00:22:20;99940.44;;;11.56;46.56
44839;BME280;30576;42.098;24.876;2023-04-28T00:24:45;99944.28;;;11.34;46.38
44839;BME280;30576;42.098;24.876;2023-04-28T00:27:11;99943.16;;;11.52;46.30
44839;BME280;30576;42.098;24.876;2023-04-28T00:29:36;99952.88;;;11.51;45.32
44839;BME280;30576;42.098;24.876;2023-04-28T00:32:02;99938.16;;;11.33;45.47
44839;BME280;30576;42.098;24.876;2023-04-28T00:34:32;99941.97;;;11.10;45.88
44839;BME280;30576;42.098;24.876;2023-04-28T00:36:57;99948.66;;;11.38;46.08
44839;BME280;30576;42.098;24.876;2023-04-28T00:39:23;99949.06;;;11.68;45.98
44839;BME280;30576;42.098;24.876;2023-04-28T00:41:49;99942.88;;;11.70;46.70
44839;BME280;30576;42.098;24.876;2023-04-28T00:44:15;99942.75;;;11.78;46.90
44839;BME280;30576;42.098;24.876;2023-04-28T00:52:44;99941.00;;;11.18;47.29
44839;BME280;30576;42.098;24.876;2023-04-28T00:55:26;99946.31;;;11.15;48.09
44839;BME280;30576;42.098;24.876;2023-04-28T00:58:40;99950.03;;;10.98;48.01
44839;BME280;30576;42.098;24.876;2023-04-28T01:04:15;99943.00;;;10.99;48.43
44839;BME280;30576;42.098;24.876;2023-04-28T01:06:41;99950.16;;;10.87;47.99
44839;BME280;30576;42.098;24.876;2023-04-28T01:09:14;99938.72;;;10.88;47.75
44839;BME280;30576;42.098;24.876;2023-04-28T01:14:33;99947.72;;;10.72;48.81
44839;BME280;30576;42.098;24.876;2023-04-28T01:17:05;99944.41;;;10.54;48.25
44839;BME280;30576;42.098;24.876;2023-04-28T01:19:42;99937.34;;;10.55;49.26
44839;BME280;30576;42.098;24.876;2023-04-28T01:22:13;99945.47;;;10.38;48.06
44839;BME280;30576;42.098;24.876;2023-04-28T01:24:56;99941.88;;;10.45;49.15
44839;BME280;30576;42.098;24.876;2023-04-28T01:27:47;99941.09;;;10.32;49.08
44839;BME280;30576;42.098;24.876;2023-04-28T01:30:17;99936.81;;;10.20;49.09
44839;BME280;30576;42.098;24.876;2023-04-28T01:35:46;99935.94;;;10.21;49.59
44839;BME280;30576;42.098;24.876;2023-04-28T01:38:16;99947.38;;;10.17;49.66
44839;BME280;30576;42.098;24.876;2023-04-28T01:40:42;99941.25;;;10.17;49.16
44839;BME280;30576;42.098;24.876;2023-04-28T01:43:13;99943.00;;;10.16;49.54
44839;BME280;30576;42.098;24.876;2023-04-28T01:45:45;99938.63;;;10.14;50.51
44839;BME280;30576;42.098;24.876;2023-04-28T01:48:32;99940.53;;;9.98;50.62
44839;BME280;30576;42.098;24.876;2023-04-28T01:51:15;99937.19;;;9.74;50.42
44839;BME280;30576;42.098;24.876;2023-04-28T01:54:02;99938.03;;;9.84;51.31
44839;BME280;30576;42.098;24.876;2023-04-28T02:00:09;99937.28;;;9.65;50.92
44839;BME280;30576;42.098;24.876;2023-04-28T02:02:34;99937.13;;;9.83;50.80
44839;BME280;30576;42.098;24.876;2023-04-28T02:13:28;99950.31;;;9.82;50.91
44839;BME280;30576;42.098;24.876;2023-04-28T02:15:55;99949.41;;;9.88;51.32
44839;BME280;30576;42.098;24.876;2023-04-28T02:18:20;99950.47;;;9.62;51.35
44839;BME280;30576;42.098;24.876;2023-04-28T02:23:32;99951.47;;;9.45;50.68
44839;BME280;30576;42.098;24.876;2023-04-28T02:38:09;99953.38;;;9.12;50.75
44839;BME280;30576;42.098;24.876;2023-04-28T02:40:38;99948.16;;;9.05;51.42
44839;BME280;30576;42.098;24.876;2023-04-28T02:43:04;99955.13;;;9.15;50.37
44839;BME280;30576;42.098;24.876;2023-04-28T02:45:32;99952.50;;;9.17;50.08
44839;BME280;30576;42.098;24.876;2023-04-28T02:48:09;99959.56;;;9.11;50.22
44839;BME280;30576;42.098;24.876;2023-04-28T02:50:44;99956.00;;;9.16;50.75
44839;BME280;30576;42.098;24.876;2023-04-28T02:53:28;99970.06;;;9.18;50.48
44839;BME280;30576;42.098;24.876;2023-04-28T02:56:03;99971.84;;;9.08;49.93
44839;BME280;30576;42.098;24.876;2023-04-28T02:58:39;99973.53;;;9.21;50.55
44839;BME280;30576;42.098;24.876;2023-04-28T03:07:12;99986.63;;;9.35;48.74
44839;BME280;30576;42.098;24.876;2023-04-28T03:09:58;99986.69;;;9.26;49.05
44839;BME280;30576;42.098;24.876;2023-04-28T03:12:28;99988.44;;;9.28;48.82
44839;BME280;30576;42.098;24.876;2023-04-28T03:14:53;99999.81;;;9.29;48.20
44839;BME280;30576;42.098;24.876;2023-04-28T03:17:21;99995.34;;;9.42;48.48
44839;BME280;30576;42.098;24.876;2023-04-28T03:19:46;100005.84;;;9.51;47.79
44839;BME280;30576;42.098;24.876;2023-04-28T03:22:31;100014.78;;;9.22;48.20
44839;BME280;30576;42.098;24.876;2023-04-28T03:27:46;100024.44;;;9.14;48.59
44839;BME280;30576;42.098;24.876;2023-04-28T03:30:37;100028.00;;;9.07;48.44
44839;BME280;30576;42.098;24.876;2023-04-28T03:33:18;100031.50;;;9.07;48.40
44839;BME280;30576;42.098;24.876;2023-04-28T03:35:52;100041.94;;;9.27;48.71
44839;BME280;30576;42.098;24.876;2023-04-28T03:46:52;100030.56;;;9.22;47.21
44839;BME280;30576;42.098;24.876;2023-04-28T03:58:52;100074.41;;;9.23;48.98
44839;BME280;30576;42.098;24.876;2023-04-28T04:01:17;100076.22;;;9.17;48.41
44839;BME280;30576;42.098;24.876;2023-04-28T04:04:14;100073.53;;;9.34;48.33
44839;BME280;30576;42.098;24.876;2023-04-28T04:09:47;100085.81;;;9.35;47.42
44839;BME280;30576;42.098;24.876;2023-04-28T04:12:13;100091.94;;;9.35;47.81
44839;BME280;30576;42.098;24.876;2023-04-28T04:14:56;100091.00;;;9.53;47.28
44839;BME280;30576;42.098;24.876;2023-04-28T04:17:21;100092.72;;;9.56;46.74
44839;BME280;30576;42.098;24.876;2023-04-28T04:19:47;100090.09;;;9.54;46.63
44839;BME280;30576;42.098;24.876;2023-04-28T04:22:22;100097.00;;;9.81;46.76
44839;BME280;30576;42.098;24.876;2023-04-28T04:24:48;100096.19;;;9.70;46.47
44839;BME280;30576;42.098;24.876;2023-04-28T04:27:13;100100.50;;;9.80;47.13
44839;BME280;30576;42.098;24.876;2023-04-28T04:29:39;100097.03;;;9.74;46.17
44839;BME280;30576;42.098;24.876;2023-04-28T04:32:04;100096.97;;;9.88;46.50
44839;BME280;30576;42.098;24.876;2023-04-28T04:34:29;100097.75;;;9.99;45.83
44839;BME280;30576;42.098;24.876;2023-04-28T04:36:56;100094.22;;;10.08;45.51
44839;BME280;30576;42.098;24.876;2023-04-28T04:39:21;100096.88;;;10.01;45.15
44839;BME280;30576;42.098;24.876;2023-04-28T04:41:48;100096.03;;;9.99;44.74
44839;BME280;30576;42.098;24.876;2023-04-28T04:44:16;100101.97;;;10.28;45.57
44839;BME280;30576;42.098;24.876;2023-04-28T04:46:41;100100.16;;;10.41;45.08
44839;BME280;30576;42.098;24.876;2023-04-28T04:49:07;100111.63;;;10.30;45.21
44839;BME280;30576;42.098;24.876;2023-04-28T04:51:41;100116.03;;;10.27;45.22
44839;BME280;30576;42.098;24.876;2023-04-28T04:57:07;100127.25;;;10.56;45.77
44839;BME280;30576;42.098;24.876;2023-04-28T04:59:41;100127.25;;;10.60;45.59
44839;BME280;30576;42.098;24.876;2023-04-28T05:02:09;100130.56;;;10.85;44.25
44839;BME280;30576;42.098;24.876;2023-04-28T05:04:43;100129.66;;;10.86;44.74
44839;BME280;30576;42.098;24.876;2023-04-28T05:07:10;100134.97;;;10.81;43.17
44839;BME280;30576;42.098;24.876;2023-04-28T05:09:41;100137.47;;;10.98;45.06
44839;BME280;30576;42.098;24.876;2023-04-28T05:17:23;100141.00;;;10.99;43.48
44839;BME280;30576;42.098;24.876;2023-04-28T05:19:51;100136.34;;;11.22;42.93
44839;BME280;30576;42.098;24.876;2023-04-28T05:22:17;100142.34;;;11.37;43.37
44839;BME280;30576;42.098;24.876;2023-04-28T05:24:42;100144.34;;;11.16;42.26
44839;BME280;30576;42.098;24.876;2023-04-28T05:27:08;100146.75;;;11.38;43.18
44839;BME280;30576;42.098;24.876;2023-04-28T05:29:34;100146.63;;;11.49;43.51
44839;BME280;30576;42.098;24.876;2023-04-28T05:32:02;100148.44;;;11.45;41.94
44839;BME280;30576;42.098;24.876;2023-04-28T05:34:28;100152.91;;;11.37;42.08
44839;BME280;30576;42.098;24.876;2023-04-28T05:36:56;100150.22;;;11.40;41.92
44839;BME280;30576;42.098;24.876;2023-04-28T05:39:25;100155.19;;;11.69;41.67
44839;BME280;30576;42.098;24.876;2023-04-28T05:41:50;100147.22;;;11.72;41.41
44839;BME280;30576;42.098;24.876;2023-04-28T05:44:17;100154.38;;;11.64;40.59
44839;BME280;30576;42.098;24.876;2023-04-28T05:46:45;100157.66;;;11.81;41.82
44839;BME280;30576;42.098;24.876;2023-04-28T05:49:11;100150.41;;;12.02;41.86
44839;BME280;30576;42.098;24.876;2023-04-28T05:51:36;100162.75;;;12.00;41.46
44839;BME280;30576;42.098;24.876;2023-04-28T05:54:04;100158.44;;;12.55;41.25
44839;BME280;30576;42.098;24.876;2023-04-28T05:56:37;100166.41;;;12.53;39.99
44839;BME280;30576;42.098;24.876;2023-04-28T05:59:06;100169.66;;;12.12;40.18
44839;BME280;30576;42.098;24.876;2023-04-28T06:01:31;100167.03;;;12.10;40.61
44839;BME280;30576;42.098;24.876;2023-04-28T06:03:57;100174.97;;;12.10;39.38
44839;BME280;30576;42.098;24.876;2023-04-28T06:06:23;100175.88;;;12.06;40.03
44839;BME280;30576;42.098;24.876;2023-04-28T06:08:50;100174.47;;;12.46;40.21
44839;BME280;30576;42.098;24.876;2023-04-28T06:11:16;100177.16;;;12.97;39.83
44839;BME280;30576;42.098;24.876;2023-04-28T06:13:43;100174.28;;;13.10;39.15
44839;BME280;30576;42.098;24.876;2023-04-28T06:16:09;100179.38;;;13.22;37.97
44839;BME280;30576;42.098;24.876;2023-04-28T06:18:34;100187.88;;;13.42;38.04
44839;BME280;30576;42.098;24.876;2023-04-28T06:21:00;100187.53;;;13.10;37.09
44839;BME280;30576;42.098;24.876;2023-04-28T06:23:25;100180.53;;;13.07;37.74
44839;BME280;30576;42.098;24.876;2023-04-28T06:25:50;100191.16;;;13.05;37.51
44839;BME280;30576;42.098;24.876;2023-04-28T06:28:16;100193.00;;;13.00;39.07
44839;BME280;30576;42.098;24.876;2023-04-28T06:30:41;100187.53;;;13.10;38.27
44839;BME280;30576;42.098;24.876;2023-04-28T06:33:06;100193.59;;;13.18;37.87
44839;BME280;30576;42.098;24.876;2023-04-28T06:35:32;100185.44;;;13.29;39.57
44839;BME280;30576;42.098;24.876;2023-04-28T06:38:00;100180.38;;;14.07;39.25
44839;BME280;30576;42.098;24.876;2023-04-28T06:40:26;100189.97;;;14.53;37.82
44839;BME280;30576;42.098;24.876;2023-04-28T06:42:51;100183.28;;;14.37;36.30
44839;BME280;30576;42.098;24.876;2023-04-28T06:45:17;100184.38;;;14.65;36.66
44839;BME280;30576;42.098;24.876;2023-04-28T06:47:42;100184.06;;;14.40;35.97
44839;BME280;30576;42.098;24.876;2023-04-28T06:50:08;100193.50;;;14.54;35.23
44839;BME280;30576;42.098;24.876;2023-04-28T06:52:35;100195.22;;;14.55;35.86
44839;BME280;30576;42.098;24.876;2023-04-28T06:55:00;100188.41;;;14.83;34.91
44839;BME280;30576;42.098;24.876;2023-04-28T06:57:25;100189.03;;;14.93;35.44
44839;BME280;30576;42.098;24.876;2023-04-28T06:59:51;100191.25;;;15.45;34.38
44839;BME280;30576;42.098;24.876;2023-04-28T07:02:16;100190.84;;;15.91;35.72
44839;BME280;30576;42.098;24.876;2023-04-28T07:04:41;100190.94;;;16.18;33.09
44839;BME280;30576;42.098;24.876;2023-04-28T07:07:07;100191.66;;;16.23;34.85
44839;BME280;30576;42.098;24.876;2023-04-28T07:09:35;100190.66;;;16.27;33.16
44839;BME280;30576;42.098;24.876;2023-04-28T07:12:00;100192.59;;;15.60;35.48
44839;BME280;30576;42.098;24.876;2023-04-28T07:14:26;100186.84;;;16.06;35.57
44839;BME280;30576;42.098;24.876;2023-04-28T07:16:51;100189.78;;;16.83;35.97
44839;BME280;30576;42.098;24.876;2023-04-28T07:19:16;100180.13;;;17.83;34.63
44839;BME280;30576;42.098;24.876;2023-04-28T07:21:42;100186.69;;;18.22;32.67
44839;BME280;30576;42.098;24.876;2023-04-28T07:24:09;100186.41;;;17.81;31.96
44839;BME280;30576;42.098;24.876;2023-04-28T07:26:34;100187.66;;;17.22;31.74
44839;BME280;30576;42.098;24.876;2023-04-28T07:28:59;100189.59;;;16.90;31.46
44839;BME280;30576;42.098;24.876;2023-04-28T07:31:26;100193.25;;;16.87;31.46
44839;BME280;30576;42.098;24.876;2023-04-28T07:33:51;100185.88;;;16.67;30.82
44839;BME280;30576;42.098;24.876;2023-04-28T07:36:16;100189.13;;;17.30;31.18
44839;BME280;30576;42.098;24.876;2023-04-28T07:38:42;100182.41;;;17.94;30.11
44839;BME280;30576;42.098;24.876;2023-04-28T07:41:07;100181.41;;;18.20;30.60
44839;BME280;30576;42.098;24.876;2023-04-28T07:43:32;100181.91;;;17.83;30.25
44839;BME280;30576;42.098;24.876;2023-04-28T07:45:58;100183.56;;;17.62;30.85
44839;BME280;30576;42.098;24.876;2023-04-28T07:48:23;100176.72;;;18.03;29.82
44839;BME280;30576;42.098;24.876;2023-04-28T07:50:48;100175.31;;;17.93;30.43
44839;BME280;30576;42.098;24.876;2023-04-28T07:53:14;100183.34;;;17.68;30.42
44839;BME280;30576;42.098;24.876;2023-04-28T07:55:39;100163.81;;;18.15;30.03
44839;BME280;30576;42.098;24.876;2023-04-28T07:58:08;100167.41;;;18.82;30.62
44839;BME280;30576;42.098;24.876;2023-04-28T08:00:34;100176.56;;;18.54;31.28
44839;BME280;30576;42.098;24.876;2023-04-28T08:03:00;100161.94;;;18.63;32.34
44839;BME280;30576;42.098;24.876;2023-04-28T08:05:25;100170.00;;;18.61;32.27
44839;BME280;30576;42.098;24.876;2023-04-28T08:07:50;100162.13;;;19.02;32.80
44839;BME280;30576;42.098;24.876;2023-04-28T08:10:16;100156.22;;;19.56;31.91
44839;BME280;30576;42.098;24.876;2023-04-28T08:12:41;100155.81;;;19.44;28.75
44839;BME280;30576;42.098;24.876;2023-04-28T08:15:08;100163.19;;;19.39;30.89
44839;BME280;30576;42.098;24.876;2023-04-28T08:17:33;100162.97;;;19.03;31.14
44839;BME280;30576;42.098;24.876;2023-04-28T08:19:59;100160.31;;;18.81;32.19
44839;BME280;30576;42.098;24.876;2023-04-28T08:22:24;100152.63;;;19.16;31.27
44839;BME280;30576;42.098;24.876;2023-04-28T08:24:50;100155.69;;;18.84;33.17
44839;BME280;30576;42.098;24.876;2023-04-28T08:27:15;100154.81;;;19.06;33.21
44839;BME280;30576;42.098;24.876;2023-04-28T08:29:40;100158.41;;;18.62;31.65
44839;BME280;30576;42.098;24.876;2023-04-28T08:32:06;100149.19;;;18.47;31.63
44839;BME280;30576;42.098;24.876;2023-04-28T08:34:31;100142.47;;;18.15;34.01
44839;BME280;30576;42.098;24.876;2023-04-28T08:36:57;100146.28;;;18.31;32.77
44839;BME280;30576;42.098;24.876;2023-04-28T08:39:22;100148.81;;;18.78;32.94
44839;BME280;30576;42.098;24.876;2023-04-28T08:41:50;100137.91;;;18.40;31.78
44839;BME280;30576;42.098;24.876;2023-04-28T08:44:15;100140.16;;;18.05;35.31
44839;BME280;30576;42.098;24.876;2023-04-28T08:46:42;100139.53;;;17.99;32.79
44839;BME280;30576;42.098;24.876;2023-04-28T08:49:11;100128.50;;;17.84;35.09
44839;BME280;30576;42.098;24.876;2023-04-28T08:51:37;100133.16;;;18.47;32.63
44839;BME280;30576;42.098;24.876;2023-04-28T08:54:08;100127.22;;;18.40;33.25
44839;BME280;30576;42.098;24.876;2023-04-28T08:56:35;100143.75;;;18.72;33.10
44839;BME280;30576;42.098;24.876;2023-04-28T08:59:00;100130.28;;;18.96;33.39
44839;BME280;30576;42.098;24.876;2023-04-28T09:01:26;100128.22;;;19.03;33.44
44839;BME280;30576;42.098;24.876;2023-04-28T09:03:53;100127.63;;;18.96;32.95
44839;BME280;30576;42.098;24.876;2023-04-28T09:06:18;100125.44;;;18.84;32.35
44839;BME280;30576;42.098;24.876;2023-04-28T09:08:43;100122.72;;;18.85;32.51
44839;BME280;30576;42.098;24.876;2023-04-28T09:11:09;100124.72;;;18.80;34.34
44839;BME280;30576;42.098;24.876;2023-04-28T09:13:35;100119.63;;;18.30;34.07
44839;BME280;30576;42.098;24.876;2023-04-28T09:16:01;100124.59;;;18.61;34.60
44839;BME280;30576;42.098;24.876;2023-04-28T09:18:28;100115.81;;;18.37;34.13
44839;BME280;30576;42.098;24.876;2023-04-28T09:21:03;100122.56;;;18.68;33.54
44839;BME280;30576;42.098;24.876;2023-04-28T09:23:29;100109.53;;;18.81;34.99
44839;BME280;30576;42.098;24.876;2023-04-28T09:25:55;100107.69;;;18.60;34.19
44839;BME280;30576;42.098;24.876;2023-04-28T09:28:21;100109.88;;;18.06;36.89
44839;BME280;30576;42.098;24.876;2023-04-28T09:30:47;100108.06;;;18.07;34.70
44839;BME280;30576;42.098;24.876;2023-04-28T09:33:12;100109.00;;;17.59;35.70
44839;BME280;30576;42.098;24.876;2023-04-28T09:35:41;100112.44;;;17.86;36.37
44839;BME280;30576;42.098;24.876;2023-04-28T09:38:07;100106.22;;;18.31;34.13
44839;BME280;30576;42.098;24.876;2023-04-28T09:40:40;100105.94;;;18.82;37.10
44839;BME280;30576;42.098;24.876;2023-04-28T09:46:07;100095.81;;;19.31;33.18
44839;BME280;30576;42.098;24.876;2023-04-28T09:48:33;100089.41;;;19.73;31.99
44839;BME280;30576;42.098;24.876;2023-04-28T09:51:00;100086.75;;;19.33;32.24
44839;BME280;30576;42.098;24.876;2023-04-28T09:53:27;100080.81;;;19.27;32.26
44839;BME280;30576;42.098;24.876;2023-04-28T09:55:54;100079.69;;;19.12;32.23
44839;BME280;30576;42.098;24.876;2023-04-28T09:58:20;100096.28;;;19.20;32.63
44839;BME280;30576;42.098;24.876;2023-04-28T10:00:53;100052.00;;;18.51;33.27
44839;BME280;30576;42.098;24.876;2023-04-28T10:03:22;100071.91;;;18.65;34.36
44839;BME280;30576;42.098;24.876;2023-04-28T10:05:48;100068.09;;;18.50;32.29
44839;BME280;30576;42.098;24.876;2023-04-28T10:08:15;100075.47;;;18.86;33.04
44839;BME280;30576;42.098;24.876;2023-04-28T10:10:42;100073.56;;;18.47;32.41
44839;BME280;30576;42.098;24.876;2023-04-28T10:13:08;100057.13;;;18.99;33.22
44839;BME280;30576;42.098;24.876;2023-04-28T10:15:33;100056.16;;;19.00;32.01
44839;BME280;30576;42.098;24.876;2023-04-28T10:17:59;100065.34;;;18.94;31.89
44839;BME280;30576;42.098;24.876;2023-04-28T10:20:27;100059.16;;;18.29;32.86
44839;BME280;30576;42.098;24.876;2023-04-28T10:23:08;100057.53;;;18.67;32.30
44839;BME280;30576;42.098;24.876;2023-04-28T10:25:41;100060.84;;;18.52;32.93
44839;BME280;30576;42.098;24.876;2023-04-28T10:28:07;100052.06;;;18.50;32.44
44839;BME280;30576;42.098;24.876;2023-04-28T10:30:32;100053.16;;;18.44;32.98
44839;BME280;30576;42.098;24.876;2023-04-28T10:38:02;100046.56;;;18.53;33.24
44839;BME280;30576;42.098;24.876;2023-04-28T10:43:13;100038.31;;;18.59;32.32
44839;BME280;30576;42.098;24.876;2023-04-28T10:48:17;100022.94;;;18.43;30.94
44839;BME280;30576;42.098;24.876;2023-04-28T10:54:13;100032.56;;;18.48;33.25
44839;BME280;30576;42.098;24.876;2023-04-28T10:56:17;100029.09;;;18.66;31.24
44839;BME280;30576;42.098;24.876;2023-04-28T10:58:49;100023.63;;;18.69;30.20
44839;BME280;30576;42.098;24.876;2023-04-28T11:03:49;100035.75;;;18.56;31.81
44839;BME280;30576;42.098;24.876;2023-04-28T11:11:29;100029.72;;;18.93;32.26
44839;BME280;30576;42.098;24.876;2023-04-28T11:14:29;100020.41;;;19.61;30.51
44839;BME280;30576;42.098;24.876;2023-04-28T11:19:27;100028.78;;;19.72;30.21
44839;BME280;30576;42.098;24.876;2023-04-28T11:21:53;100024.81;;;19.24;31.80
44839;BME280;30576;42.098;24.876;2023-04-28T11:24:25;100025.41;;;18.91;31.37
44839;BME280;30576;42.098;24.876;2023-04-28T11:26:51;100014.41;;;18.56;31.52
44839;BME280;30576;42.098;24.876;2023-04-28T11:29:17;100023.94;;;19.23;32.95
44839;BME280;30576;42.098;24.876;2023-04-28T11:35:32;100013.03;;;19.28;31.66
44839;BME280;30576;42.098;24.876;2023-04-28T11:38:17;100015.28;;;19.75;32.43
44839;BME280;30576;42.098;24.876;2023-04-28T11:41:08;100009.72;;;19.42;29.01
44839;BME280;30576;42.098;24.876;2023-04-28T11:43:38;100003.84;;;19.72;32.55
44839;BME280;30576;42.098;24.876;2023-04-28T11:46:06;100000.41;;;19.70;29.39
44839;BME280;30576;42.098;24.876;2023-04-28T11:48:47;100007.09;;;19.21;29.88
44839;BME280;30576;42.098;24.876;2023-04-28T11:51:31;100001.03;;;18.76;30.40
44839;BME280;30576;42.098;24.876;2023-04-28T11:53:57;99997.38;;;18.58;31.10
44839;BME280;30576;42.098;24.876;2023-04-28T11:59:41;99995.09;;;19.30;31.29
44839;BME280;30576;42.098;24.876;2023-04-28T12:02:07;99986.94;;;19.14;30.69
44839;BME280;30576;42.098;24.876;2023-04-28T12:04:36;99988.22;;;18.64;31.16
44839;BME280;30576;42.098;24.876;2023-04-28T12:09:31;99989.44;;;18.57;30.63
44839;BME280;30576;42.098;24.876;2023-04-28T12:11:57;99975.94;;;18.60;30.82
44839;BME280;30576;42.098;24.876;2023-04-28T12:14:23;99979.91;;;18.70;31.55
44839;BME280;30576;42.098;24.876;2023-04-28T12:16:49;99973.09;;;18.22;32.48
44839;BME280;30576;42.098;24.876;2023-04-28T12:19:15;99971.06;;;18.70;31.88
44839;BME280;30576;42.098;24.876;2023-04-28T12:21:41;99966.59;;;18.91;31.26
44839;BME280;30576;42.098;24.876;2023-04-28T12:24:15;99964.63;;;18.94;30.50
44839;BME280;30576;42.098;24.876;2023-04-28T12:26:41;99960.34;;;18.90;30.54
44839;BME280;30576;42.098;24.876;2023-04-28T12:31:50;99952.03;;;18.57;31.53
44839;BME280;30576;42.098;24.876;2023-04-28T12:34:17;99944.47;;;18.87;30.21
44839;BME280;30576;42.098;24.876;2023-04-28T12:36:42;99944.72;;;19.02;29.90
44839;BME280;30576;42.098;24.876;2023-04-28T12:39:13;99938.44;;;19.41;29.87
44839;BME280;30576;42.098;24.876;2023-04-28T12:41:40;99933.41;;;19.90;29.52
44839;BME280;30576;42.098;24.876;2023-04-28T12:44:11;99928.09;;;19.33;29.62
44839;BME280;30576;42.098;24.876;2023-04-28T12:46:36;99925.13;;;18.81;29.42
44839;BME280;30576;42.098;24.876;2023-04-28T12:49:02;99922.00;;;19.10;30.87
44839;BME280;30576;42.098;24.876;2023-04-28T12:51:27;99921.72;;;18.98;30.09
44839;BME280;30576;42.098;24.876;2023-04-28T12:53:53;99915.22;;;19.41;29.98
44839;BME280;30576;42.098;24.876;2023-04-28T12:56:19;99912.91;;;19.33;29.42
44839;BME280;30576;42.098;24.876;2023-04-28T12:58:44;99910.75;;;19.23;28.75
44839;BME280;30576;42.098;24.876;2023-04-28T13:01:09;99898.50;;;19.55;29.97
44839;BME280;30576;42.098;24.876;2023-04-28T13:03:35;99907.88;;;19.64;30.21
44839;BME280;30576;42.098;24.876;2023-04-28T13:06:03;99893.72;;;19.62;27.99
44839;BME280;30576;42.098;24.876;2023-04-28T13:08:28;99910.41;;;19.11;29.61
44839;BME280;30576;42.098;24.876;2023-04-28T13:10:58;99892.75;;;19.07;29.11
44839;BME280;30576;42.098;24.876;2023-04-28T13:13:23;99895.34;;;19.09;28.97
44839;BME280;30576;42.098;24.876;2023-04-28T13:15:48;99890.72;;;19.31;30.38
44839;BME280;30576;42.098;24.876;2023-04-28T13:18:15;99884.00;;;19.42;30.39
44839;BME280;30576;42.098;24.876;2023-04-28T13:20:41;99873.63;;;19.53;29.77
44839;BME280;30576;42.098;24.876;2023-04-28T13:23:16;99880.00;;;19.87;29.24
44839;BME280;30576;42.098;24.876;2023-04-28T13:25:49;99876.50;;;19.31;29.82
44839;BME280;30576;42.098;24.876;2023-04-28T13:28:14;99875.75;;;19.46;29.17
44839;BME280;30576;42.098;24.876;2023-04-28T13:30:40;99864.69;;;19.72;30.33
44839;BME280;30576;42.098;24.876;2023-04-28T13:33:05;99868.75;;;19.80;27.92
44839;BME280;30576;42.098;24.876;2023-04-28T13:37:59;99868.22;;;19.91;28.29
44839;BME280;30576;42.098;24.876;2023-04-28T13:43:35;99865.03;;;19.83;28.08
44839;BME280;30576;42.098;24.876;2023-04-28T13:46:00;99860.59;;;19.83;28.44
44839;BME280;30576;42.098;24.876;2023-04-28T13:48:26;99854.41;;;19.81;29.18
44839;BME280;30576;42.098;24.876;2023-04-28T13:50:51;99854.09;;;20.23;29.17
44839;BME280;30576;42.098;24.876;2023-04-28T13:53:17;99860.97;;;19.93;29.13
44839;BME280;30576;42.098;24.876;2023-04-28T13:55:43;99853.38;;;19.66;27.68
44839;BME280;30576;42.098;24.876;2023-04-28T13:58:09;99854.16;;;19.68;28.14
44839;BME280;30576;42.098;24.876;2023-04-28T14:00:34;99857.59;;;19.71;29.12
44839;BME280;30576;42.098;24.876;2023-04-28T14:03:01;99848.22;;;19.81;28.73
44839;BME280;30576;42.098;24.876;2023-04-28T14:05:27;99852.63;;;19.82;28.92
44839;BME280;30576;42.098;24.876;2023-04-28T14:07:53;99848.84;;;20.03;27.76
44839;BME280;30576;42.098;24.876;2023-04-28T14:10:19;99842.00;;;19.61;28.51
44839;BME280;30576;42.098;24.876;2023-04-28T14:12:44;99845.75;;;19.94;29.87
44839;BME280;30576;42.098;24.876;2023-04-28T14:15:10;99851.63;;;20.35;29.05
44839;BME280;30576;42.098;24.876;2023-04-28T14:17:37;99844.16;;;20.42;29.02
44839;BME280;30576;42.098;24.876;2023-04-28T14:20:02;99842.84;;;19.98;28.57
44839;BME280;30576;42.098;24.876;2023-04-28T14:22:28;99842.28;;;20.09;28.31
44839;BME280;30576;42.098;24.876;2023-04-28T14:24:53;99842.31;;;19.92;29.18
44839;BME280;30576;42.098;24.876;2023-04-28T14:27:19;99843.66;;;20.00;30.74
44839;BME280;30576;42.098;24.876;2023-04-28T14:29:45;99843.47;;;20.21;29.62
44839;BME280;30576;42.098;24.876;2023-04-28T14:32:14;99846.59;;;20.29;28.36
44839;BME280;30576;42.098;24.876;2023-04-28T14:34:40;99839.63;;;20.27;28.13
44839;BME280;30576;42.098;24.876;2023-04-28T14:37:06;99840.88;;;19.84;27.66
44839;BME280;30576;42.098;24.876;2023-04-28T14:39:32;99843.88;;;19.78;27.90
44839;BME280;30576;42.098;24.876;2023-04-28T14:41:57;99840.88;;;20.19;28.02
44839;BME280;30576;42.098;24.876;2023-04-28T14:44:23;99840.66;;;20.57;27.71
44839;BME280;30576;42.098;24.876;2023-04-28T14:46:50;99838.28;;;20.69;27.72
44839;BME280;30576;42.098;24.876;2023-04-28T14:49:15;99834.84;;;20.99;25.99
44839;BME280;30576;42.098;24.876;2023-04-28T14:51:41;99837.63;;;21.29;26.44
44839;BME280;30576;42.098;24.876;2023-04-28T14:54:07;99830.06;;;20.88;27.05
44839;BME280;30576;42.098;24.876;2023-04-28T14:56:35;99830.63;;;20.61;27.25